Bass River, Massachusetts
Current Conditions -  °F | °C
As of 7:06 PM on Thursday 27 Nov 2014 (Local Time) from KHYA Reporting Station
Light Rain Light Rain  
Wind Chill:   Ceiling: 2500
Heat Index:   Visibility: 10mi
Dew Point:   Wind: 0mph
Humidity: 89%   Direction: NA
Pressure: 29.96"   Gusts: NA
Location:  41.6739°N, 70.1961°W
Report Text: KHYA 280006Z 00000KT 10SM -RA SCT020 BKN025 OVC040 03/02 A2996 RMK AO2 P0000 T00330017
Loading
Personal Weather Stations






























Interactive Weather Map New forecast layout! Learn more

10-Day Weather Forecast

Advertisements
Track Severe Weather on mobile